sensor_id;sensor_type;location;lat;lon;timestamp;P1;durP1;ratioP1;P2;durP2;ratioP2
54388;SDS011;40975;50.390;8.640;2023-08-21T00:02:15;9.73;;;7.05;;
54388;SDS011;40975;50.390;8.640;2023-08-21T00:04:40;11.63;;;7.90;;
54388;SDS011;40975;50.390;8.640;2023-08-21T00:07:06;8.57;;;6.80;;
54388;SDS011;40975;50.390;8.640;2023-08-21T00:09:31;9.10;;;6.72;;
54388;SDS011;40975;50.390;8.640;2023-08-21T00:11:57;8.27;;;6.68;;
54388;SDS011;40975;50.390;8.640;2023-08-21T00:14:22;10.20;;;7.45;;
54388;SDS011;40975;50.390;8.640;2023-08-21T00:16:47;9.65;;;7.22;;
54388;SDS011;40975;50.390;8.640;2023-08-21T00:19:13;8.77;;;6.80;;
54388;SDS011;40975;50.390;8.640;2023-08-21T00:21:38;8.65;;;7.03;;
54388;SDS011;40975;50.390;8.640;2023-08-21T00:24:03;7.78;;;6.15;;
54388;SDS011;40975;50.390;8.640;2023-08-21T00:26:29;12.00;;;7.35;;
54388;SDS011;40975;50.390;8.640;2023-08-21T00:28:54;9.65;;;6.93;;
54388;SDS011;40975;50.390;8.640;2023-08-21T00:31:19;9.75;;;6.85;;
54388;SDS011;40975;50.390;8.640;2023-08-21T00:33:45;8.77;;;6.90;;
54388;SDS011;40975;50.390;8.640;2023-08-21T00:36:10;11.38;;;7.15;;
54388;SDS011;40975;50.390;8.640;2023-08-21T00:38:35;9.80;;;6.70;;
54388;SDS011;40975;50.390;8.640;2023-08-21T00:41:01;10.02;;;6.88;;
54388;SDS011;40975;50.390;8.640;2023-08-21T00:43:26;10.55;;;7.22;;
54388;SDS011;40975;50.390;8.640;2023-08-21T00:45:51;10.52;;;7.22;;
54388;SDS011;40975;50.390;8.640;2023-08-21T00:48:17;8.05;;;6.55;;
54388;SDS011;40975;50.390;8.640;2023-08-21T00:50:43;9.82;;;6.78;;
54388;SDS011;40975;50.390;8.640;2023-08-21T00:53:10;11.27;;;7.45;;
54388;SDS011;40975;50.390;8.640;2023-08-21T00:55:35;8.00;;;6.82;;
54388;SDS011;40975;50.390;8.640;2023-08-21T00:58:02;7.97;;;7.03;;
54388;SDS011;40975;50.390;8.640;2023-08-21T01:00:29;7.80;;;6.90;;
54388;SDS011;40975;50.390;8.640;2023-08-21T01:02:55;10.18;;;7.05;;
54388;SDS011;40975;50.390;8.640;2023-08-21T01:05:22;9.93;;;7.47;;
54388;SDS011;40975;50.390;8.640;2023-08-21T01:07:57;12.48;;;7.25;;
54388;SDS011;40975;50.390;8.640;2023-08-21T01:15:59;11.90;;;8.07;;
54388;SDS011;40975;50.390;8.640;2023-08-21T01:18:26;13.05;;;7.63;;
54388;SDS011;40975;50.390;8.640;2023-08-21T01:20:53;10.75;;;7.40;;
54388;SDS011;40975;50.390;8.640;2023-08-21T01:23:38;10.43;;;7.85;;
54388;SDS011;40975;50.390;8.640;2023-08-21T01:26:04;9.45;;;7.28;;
54388;SDS011;40975;50.390;8.640;2023-08-21T01:28:30;10.18;;;7.72;;
54388;SDS011;40975;50.390;8.640;2023-08-21T01:31:18;9.30;;;6.97;;
54388;SDS011;40975;50.390;8.640;2023-08-21T01:33:50;9.82;;;7.45;;
54388;SDS011;40975;50.390;8.640;2023-08-21T01:36:19;8.20;;;7.30;;
54388;SDS011;40975;50.390;8.640;2023-08-21T01:38:45;11.82;;;8.23;;
54388;SDS011;40975;50.390;8.640;2023-08-21T01:41:12;11.20;;;7.30;;
54388;SDS011;40975;50.390;8.640;2023-08-21T01:43:37;10.65;;;7.18;;
54388;SDS011;40975;50.390;8.640;2023-08-21T01:46:03;10.18;;;7.35;;
54388;SDS011;40975;50.390;8.640;2023-08-21T01:48:28;14.18;;;8.00;;
54388;SDS011;40975;50.390;8.640;2023-08-21T01:50:54;9.70;;;7.32;;
54388;SDS011;40975;50.390;8.640;2023-08-21T01:53:21;8.13;;;7.25;;
54388;SDS011;40975;50.390;8.640;2023-08-21T01:55:46;10.45;;;6.85;;
54388;SDS011;40975;50.390;8.640;2023-08-21T01:58:11;9.57;;;6.78;;
54388;SDS011;40975;50.390;8.640;2023-08-21T02:00:38;10.63;;;7.60;;
54388;SDS011;40975;50.390;8.640;2023-08-21T02:03:03;10.90;;;7.20;;
54388;SDS011;40975;50.390;8.640;2023-08-21T02:05:28;11.32;;;7.88;;
54388;SDS011;40975;50.390;8.640;2023-08-21T02:07:54;9.13;;;7.43;;
54388;SDS011;40975;50.390;8.640;2023-08-21T02:10:19;8.98;;;7.22;;
54388;SDS011;40975;50.390;8.640;2023-08-21T02:12:44;10.02;;;6.97;;
54388;SDS011;40975;50.390;8.640;2023-08-21T02:15:10;8.18;;;7.28;;
54388;SDS011;40975;50.390;8.640;2023-08-21T02:17:35;10.25;;;7.50;;
54388;SDS011;40975;50.390;8.640;2023-08-21T02:20:01;9.10;;;7.57;;
54388;SDS011;40975;50.390;8.640;2023-08-21T02:22:26;10.70;;;7.20;;
54388;SDS011;40975;50.390;8.640;2023-08-21T02:24:52;10.88;;;7.95;;
54388;SDS011;40975;50.390;8.640;2023-08-21T02:27:18;10.30;;;7.30;;
54388;SDS011;40975;50.390;8.640;2023-08-21T02:29:43;9.60;;;7.00;;
54388;SDS011;40975;50.390;8.640;2023-08-21T02:32:08;11.05;;;7.90;;
54388;SDS011;40975;50.390;8.640;2023-08-21T02:34:34;9.65;;;7.28;;
54388;SDS011;40975;50.390;8.640;2023-08-21T02:36:59;9.40;;;7.75;;
54388;SDS011;40975;50.390;8.640;2023-08-21T02:39:27;8.40;;;7.22;;
54388;SDS011;40975;50.390;8.640;2023-08-21T02:41:53;12.00;;;8.18;;
54388;SDS011;40975;50.390;8.640;2023-08-21T02:44:18;10.38;;;8.20;;
54388;SDS011;40975;50.390;8.640;2023-08-21T02:46:43;11.25;;;7.78;;
54388;SDS011;40975;50.390;8.640;2023-08-21T02:49:09;10.32;;;7.65;;
54388;SDS011;40975;50.390;8.640;2023-08-21T02:51:34;9.20;;;8.23;;
54388;SDS011;40975;50.390;8.640;2023-08-21T02:53:59;11.05;;;7.50;;
54388;SDS011;40975;50.390;8.640;2023-08-21T02:56:25;8.60;;;6.95;;
54388;SDS011;40975;50.390;8.640;2023-08-21T02:58:50;8.52;;;7.03;;
54388;SDS011;40975;50.390;8.640;2023-08-21T03:01:15;10.02;;;8.25;;
54388;SDS011;40975;50.390;8.640;2023-08-21T03:03:42;10.63;;;8.30;;
54388;SDS011;40975;50.390;8.640;2023-08-21T03:06:07;9.80;;;7.72;;
54388;SDS011;40975;50.390;8.640;2023-08-21T03:08:32;16.30;;;7.85;;
54388;SDS011;40975;50.390;8.640;2023-08-21T03:10:58;9.05;;;7.55;;
54388;SDS011;40975;50.390;8.640;2023-08-21T03:13:23;12.60;;;8.57;;
54388;SDS011;40975;50.390;8.640;2023-08-21T03:15:48;11.13;;;8.27;;
54388;SDS011;40975;50.390;8.640;2023-08-21T03:18:14;12.25;;;7.75;;
54388;SDS011;40975;50.390;8.640;2023-08-21T03:20:48;13.48;;;8.73;;
54388;SDS011;40975;50.390;8.640;2023-08-21T03:23:14;11.15;;;7.68;;
54388;SDS011;40975;50.390;8.640;2023-08-21T03:25:40;10.20;;;8.60;;
54388;SDS011;40975;50.390;8.640;2023-08-21T03:28:05;9.20;;;8.30;;
54388;SDS011;40975;50.390;8.640;2023-08-21T03:30:30;15.85;;;8.85;;
54388;SDS011;40975;50.390;8.640;2023-08-21T03:32:56;9.88;;;7.57;;
54388;SDS011;40975;50.390;8.640;2023-08-21T03:35:23;9.85;;;7.38;;
54388;SDS011;40975;50.390;8.640;2023-08-21T03:37:48;10.80;;;8.18;;
54388;SDS011;40975;50.390;8.640;2023-08-21T03:40:14;11.20;;;7.88;;
54388;SDS011;40975;50.390;8.640;2023-08-21T03:42:40;10.48;;;7.80;;
54388;SDS011;40975;50.390;8.640;2023-08-21T03:45:06;12.60;;;8.35;;
54388;SDS011;40975;50.390;8.640;2023-08-21T03:47:32;12.27;;;7.93;;
54388;SDS011;40975;50.390;8.640;2023-08-21T03:50:02;11.05;;;8.35;;
54388;SDS011;40975;50.390;8.640;2023-08-21T03:52:28;13.60;;;8.38;;
54388;SDS011;40975;50.390;8.640;2023-08-21T03:54:53;8.40;;;7.25;;
54388;SDS011;40975;50.390;8.640;2023-08-21T03:57:18;13.27;;;7.90;;
54388;SDS011;40975;50.390;8.640;2023-08-21T03:59:43;8.70;;;7.68;;
54388;SDS011;40975;50.390;8.640;2023-08-21T04:02:09;11.27;;;7.60;;
54388;SDS011;40975;50.390;8.640;2023-08-21T04:04:34;9.60;;;7.13;;
54388;SDS011;40975;50.390;8.640;2023-08-21T04:07:00;11.00;;;8.20;;
54388;SDS011;40975;50.390;8.640;2023-08-21T04:09:25;11.93;;;7.63;;
54388;SDS011;40975;50.390;8.640;2023-08-21T04:11:50;9.80;;;7.55;;
54388;SDS011;40975;50.390;8.640;2023-08-21T04:14:16;8.57;;;7.70;;
54388;SDS011;40975;50.390;8.640;2023-08-21T04:16:41;10.27;;;7.75;;
54388;SDS011;40975;50.390;8.640;2023-08-21T04:19:06;10.52;;;7.30;;
54388;SDS011;40975;50.390;8.640;2023-08-21T04:21:32;10.90;;;7.90;;
54388;SDS011;40975;50.390;8.640;2023-08-21T04:23:57;10.68;;;7.25;;
54388;SDS011;40975;50.390;8.640;2023-08-21T04:26:22;9.85;;;7.57;;
54388;SDS011;40975;50.390;8.640;2023-08-21T04:28:48;26.85;;;16.27;;
54388;SDS011;40975;50.390;8.640;2023-08-21T04:31:13;17.58;;;11.85;;
54388;SDS011;40975;50.390;8.640;2023-08-21T04:33:40;12.70;;;7.90;;
54388;SDS011;40975;50.390;8.640;2023-08-21T04:36:05;11.00;;;7.03;;
54388;SDS011;40975;50.390;8.640;2023-08-21T04:38:31;8.07;;;6.80;;
54388;SDS011;40975;50.390;8.640;2023-08-21T04:41:00;8.25;;;6.88;;
54388;SDS011;40975;50.390;8.640;2023-08-21T04:43:31;11.38;;;7.10;;
54388;SDS011;40975;50.390;8.640;2023-08-21T04:45:56;9.40;;;7.00;;
54388;SDS011;40975;50.390;8.640;2023-08-21T04:48:23;8.85;;;6.80;;
54388;SDS011;40975;50.390;8.640;2023-08-21T04:50:48;10.30;;;6.80;;
54388;SDS011;40975;50.390;8.640;2023-08-21T04:53:14;9.80;;;6.78;;
54388;SDS011;40975;50.390;8.640;2023-08-21T04:55:39;8.68;;;6.80;;
54388;SDS011;40975;50.390;8.640;2023-08-21T04:58:07;8.98;;;6.80;;
54388;SDS011;40975;50.390;8.640;2023-08-21T05:00:34;8.30;;;7.03;;
54388;SDS011;40975;50.390;8.640;2023-08-21T05:02:59;11.23;;;7.05;;
54388;SDS011;40975;50.390;8.640;2023-08-21T05:05:25;12.23;;;6.90;;
54388;SDS011;40975;50.390;8.640;2023-08-21T05:07:54;9.15;;;6.80;;
54388;SDS011;40975;50.390;8.640;2023-08-21T05:10:21;11.13;;;7.05;;
54388;SDS011;40975;50.390;8.640;2023-08-21T05:12:47;10.40;;;7.72;;
54388;SDS011;40975;50.390;8.640;2023-08-21T05:15:12;8.80;;;7.18;;
54388;SDS011;40975;50.390;8.640;2023-08-21T05:17:38;10.60;;;6.85;;
54388;SDS011;40975;50.390;8.640;2023-08-21T05:20:03;8.40;;;6.18;;
54388;SDS011;40975;50.390;8.640;2023-08-21T05:22:29;8.23;;;6.72;;
54388;SDS011;40975;50.390;8.640;2023-08-21T05:24:54;12.57;;;7.35;;
54388;SDS011;40975;50.390;8.640;2023-08-21T05:27:20;7.40;;;6.18;;
54388;SDS011;40975;50.390;8.640;2023-08-21T05:29:46;9.15;;;6.72;;
54388;SDS011;40975;50.390;8.640;2023-08-21T05:32:12;7.35;;;6.22;;
54388;SDS011;40975;50.390;8.640;2023-08-21T05:34:37;7.70;;;6.00;;
54388;SDS011;40975;50.390;8.640;2023-08-21T05:37:02;6.80;;;5.55;;
54388;SDS011;40975;50.390;8.640;2023-08-21T05:39:29;7.25;;;6.13;;
54388;SDS011;40975;50.390;8.640;2023-08-21T05:41:54;9.48;;;5.78;;
54388;SDS011;40975;50.390;8.640;2023-08-21T05:44:21;9.88;;;6.20;;
54388;SDS011;40975;50.390;8.640;2023-08-21T05:46:46;8.77;;;6.03;;
54388;SDS011;40975;50.390;8.640;2023-08-21T05:49:12;10.45;;;5.78;;
54388;SDS011;40975;50.390;8.640;2023-08-21T05:51:37;6.60;;;5.18;;
54388;SDS011;40975;50.390;8.640;2023-08-21T05:54:02;8.93;;;5.97;;
54388;SDS011;40975;50.390;8.640;2023-08-21T05:56:28;7.97;;;5.85;;
54388;SDS011;40975;50.390;8.640;2023-08-21T05:58:54;8.98;;;5.93;;
54388;SDS011;40975;50.390;8.640;2023-08-21T06:01:22;7.03;;;6.32;;
54388;SDS011;40975;50.390;8.640;2023-08-21T06:03:48;6.72;;;5.85;;
54388;SDS011;40975;50.390;8.640;2023-08-21T06:06:20;7.57;;;5.97;;
54388;SDS011;40975;50.390;8.640;2023-08-21T06:08:46;6.53;;;5.32;;
54388;SDS011;40975;50.390;8.640;2023-08-21T06:11:11;7.60;;;5.32;;
54388;SDS011;40975;50.390;8.640;2023-08-21T06:13:36;6.47;;;5.00;;
54388;SDS011;40975;50.390;8.640;2023-08-21T06:16:01;5.65;;;4.57;;
54388;SDS011;40975;50.390;8.640;2023-08-21T06:18:28;8.05;;;5.00;;
54388;SDS011;40975;50.390;8.640;2023-08-21T06:20:54;4.70;;;4.30;;
54388;SDS011;40975;50.390;8.640;2023-08-21T06:23:20;5.00;;;4.45;;
54388;SDS011;40975;50.390;8.640;2023-08-21T06:25:49;4.75;;;3.83;;
54388;SDS011;40975;50.390;8.640;2023-08-21T06:28:16;5.43;;;4.03;;
54388;SDS011;40975;50.390;8.640;2023-08-21T06:30:42;6.25;;;4.10;;
54388;SDS011;40975;50.390;8.640;2023-08-21T06:33:08;4.40;;;3.78;;
54388;SDS011;40975;50.390;8.640;2023-08-21T06:35:35;4.30;;;3.90;;
54388;SDS011;40975;50.390;8.640;2023-08-21T06:38:01;7.18;;;3.92;;
54388;SDS011;40975;50.390;8.640;2023-08-21T06:40:27;5.53;;;4.15;;
54388;SDS011;40975;50.390;8.640;2023-08-21T06:42:52;7.75;;;4.13;;
54388;SDS011;40975;50.390;8.640;2023-08-21T06:45:21;4.78;;;4.30;;
54388;SDS011;40975;50.390;8.640;2023-08-21T06:47:47;5.40;;;4.18;;
54388;SDS011;40975;50.390;8.640;2023-08-21T06:50:12;4.35;;;3.95;;
54388;SDS011;40975;50.390;8.640;2023-08-21T06:52:37;5.20;;;4.25;;
54388;SDS011;40975;50.390;8.640;2023-08-21T06:55:03;4.63;;;4.20;;
54388;SDS011;40975;50.390;8.640;2023-08-21T06:57:28;7.78;;;4.03;;
54388;SDS011;40975;50.390;8.640;2023-08-21T06:59:53;6.00;;;4.32;;
54388;SDS011;40975;50.390;8.640;2023-08-21T07:02:19;6.38;;;4.00;;
54388;SDS011;40975;50.390;8.640;2023-08-21T07:04:44;7.35;;;4.40;;
54388;SDS011;40975;50.390;8.640;2023-08-21T07:07:10;5.53;;;3.95;;
54388;SDS011;40975;50.390;8.640;2023-08-21T07:09:35;4.57;;;4.18;;
54388;SDS011;40975;50.390;8.640;2023-08-21T07:12:00;4.75;;;3.85;;
54388;SDS011;40975;50.390;8.640;2023-08-21T07:14:26;4.38;;;3.88;;
54388;SDS011;40975;50.390;8.640;2023-08-21T07:16:52;6.43;;;3.92;;
54388;SDS011;40975;50.390;8.640;2023-08-21T07:19:17;6.03;;;4.55;;
54388;SDS011;40975;50.390;8.640;2023-08-21T07:21:42;4.82;;;4.20;;
54388;SDS011;40975;50.390;8.640;2023-08-21T07:24:08;4.88;;;4.40;;
54388;SDS011;40975;50.390;8.640;2023-08-21T07:26:33;5.30;;;3.83;;
54388;SDS011;40975;50.390;8.640;2023-08-21T07:28:58;6.45;;;4.50;;
54388;SDS011;40975;50.390;8.640;2023-08-21T07:31:24;4.65;;;4.10;;
54388;SDS011;40975;50.390;8.640;2023-08-21T07:33:49;6.90;;;4.45;;
54388;SDS011;40975;50.390;8.640;2023-08-21T07:36:15;7.68;;;4.43;;
54388;SDS011;40975;50.390;8.640;2023-08-21T07:38:42;9.90;;;4.45;;
54388;SDS011;40975;50.390;8.640;2023-08-21T07:41:09;8.30;;;4.85;;
54388;SDS011;40975;50.390;8.640;2023-08-21T07:43:37;10.43;;;4.63;;
54388;SDS011;40975;50.390;8.640;2023-08-21T07:46:03;7.03;;;5.10;;
54388;SDS011;40975;50.390;8.640;2023-08-21T07:48:29;7.18;;;4.95;;
54388;SDS011;40975;50.390;8.640;2023-08-21T07:50:55;4.75;;;4.03;;
54388;SDS011;40975;50.390;8.640;2023-08-21T07:53:21;7.07;;;5.22;;
54388;SDS011;40975;50.390;8.640;2023-08-21T07:55:47;5.05;;;4.65;;
54388;SDS011;40975;50.390;8.640;2023-08-21T07:58:12;4.68;;;4.25;;
54388;SDS011;40975;50.390;8.640;2023-08-21T08:00:38;6.60;;;4.78;;
54388;SDS011;40975;50.390;8.640;2023-08-21T08:03:04;4.85;;;3.90;;
54388;SDS011;40975;50.390;8.640;2023-08-21T08:05:29;4.93;;;4.43;;
54388;SDS011;40975;50.390;8.640;2023-08-21T08:07:54;5.93;;;4.35;;
54388;SDS011;40975;50.390;8.640;2023-08-21T08:10:20;6.40;;;4.05;;
54388;SDS011;40975;50.390;8.640;2023-08-21T08:12:45;6.50;;;4.03;;
54388;SDS011;40975;50.390;8.640;2023-08-21T08:15:10;6.00;;;4.00;;
54388;SDS011;40975;50.390;8.640;2023-08-21T08:17:36;4.47;;;4.03;;
54388;SDS011;40975;50.390;8.640;2023-08-21T08:20:01;4.47;;;4.07;;
54388;SDS011;40975;50.390;8.640;2023-08-21T08:22:26;4.40;;;4.05;;
54388;SDS011;40975;50.390;8.640;2023-08-21T08:24:52;5.10;;;4.60;;
54388;SDS011;40975;50.390;8.640;2023-08-21T08:27:17;3.90;;;3.50;;
54388;SDS011;40975;50.390;8.640;2023-08-21T08:29:42;4.57;;;3.72;;
54388;SDS011;40975;50.390;8.640;2023-08-21T08:32:08;4.30;;;3.83;;
54388;SDS011;40975;50.390;8.640;2023-08-21T08:34:33;5.60;;;4.00;;
54388;SDS011;40975;50.390;8.640;2023-08-21T08:36:58;4.25;;;3.83;;
54388;SDS011;40975;50.390;8.640;2023-08-21T08:39:24;5.73;;;4.10;;
54388;SDS011;40975;50.390;8.640;2023-08-21T08:41:51;5.05;;;4.03;;
54388;SDS011;40975;50.390;8.640;2023-08-21T08:44:23;6.32;;;3.95;;
54388;SDS011;40975;50.390;8.640;2023-08-21T08:46:50;4.90;;;3.75;;
54388;SDS011;40975;50.390;8.640;2023-08-21T08:49:16;4.50;;;3.92;;
54388;SDS011;40975;50.390;8.640;2023-08-21T08:51:42;4.15;;;3.53;;
54388;SDS011;40975;50.390;8.640;2023-08-21T08:54:08;6.70;;;4.65;;
54388;SDS011;40975;50.390;8.640;2023-08-21T08:56:34;5.25;;;4.15;;
54388;SDS011;40975;50.390;8.640;2023-08-21T08:58:59;4.65;;;3.70;;
54388;SDS011;40975;50.390;8.640;2023-08-21T09:01:24;5.93;;;3.95;;
54388;SDS011;40975;50.390;8.640;2023-08-21T09:03:50;5.05;;;4.25;;
54388;SDS011;40975;50.390;8.640;2023-08-21T09:06:16;4.53;;;4.13;;
54388;SDS011;40975;50.390;8.640;2023-08-21T09:08:53;4.47;;;3.57;;
54388;SDS011;40975;50.390;8.640;2023-08-21T09:11:20;4.37;;;3.43;;
54388;SDS011;40975;50.390;8.640;2023-08-21T09:13:45;5.53;;;3.28;;
54388;SDS011;40975;50.390;8.640;2023-08-21T09:16:14;7.90;;;4.13;;
54388;SDS011;40975;50.390;8.640;2023-08-21T09:18:48;3.78;;;3.28;;
54388;SDS011;40975;50.390;8.640;2023-08-21T09:21:20;8.60;;;3.80;;
54388;SDS011;40975;50.390;8.640;2023-08-21T09:23:47;5.90;;;4.30;;
54388;SDS011;40975;50.390;8.640;2023-08-21T09:26:18;7.13;;;3.80;;
54388;SDS011;40975;50.390;8.640;2023-08-21T09:28:45;5.75;;;3.38;;
54388;SDS011;40975;50.390;8.640;2023-08-21T09:31:10;5.75;;;3.90;;
54388;SDS011;40975;50.390;8.640;2023-08-21T09:33:36;4.63;;;3.10;;
54388;SDS011;40975;50.390;8.640;2023-08-21T09:36:02;5.80;;;3.63;;
54388;SDS011;40975;50.390;8.640;2023-08-21T09:38:29;4.20;;;3.55;;
54388;SDS011;40975;50.390;8.640;2023-08-21T09:40:55;6.07;;;3.63;;
54388;SDS011;40975;50.390;8.640;2023-08-21T09:43:21;4.03;;;3.63;;
54388;SDS011;40975;50.390;8.640;2023-08-21T09:45:49;4.13;;;3.72;;
54388;SDS011;40975;50.390;8.640;2023-08-21T09:48:21;3.85;;;3.15;;
54388;SDS011;40975;50.390;8.640;2023-08-21T09:50:48;3.75;;;3.30;;
54388;SDS011;40975;50.390;8.640;2023-08-21T09:53:16;3.65;;;3.22;;
54388;SDS011;40975;50.390;8.640;2023-08-21T09:55:41;3.47;;;3.17;;
54388;SDS011;40975;50.390;8.640;2023-08-21T09:58:07;5.20;;;3.67;;
54388;SDS011;40975;50.390;8.640;2023-08-21T10:00:34;3.40;;;3.10;;
54388;SDS011;40975;50.390;8.640;2023-08-21T10:03:07;4.03;;;3.10;;
54388;SDS011;40975;50.390;8.640;2023-08-21T10:05:36;4.30;;;3.30;;
54388;SDS011;40975;50.390;8.640;2023-08-21T10:08:03;3.70;;;3.40;;
54388;SDS011;40975;50.390;8.640;2023-08-21T10:10:32;4.90;;;2.80;;
54388;SDS011;40975;50.390;8.640;2023-08-21T10:12:59;3.42;;;2.75;;
54388;SDS011;40975;50.390;8.640;2023-08-21T10:15:25;3.20;;;2.92;;
54388;SDS011;40975;50.390;8.640;2023-08-21T10:17:53;4.65;;;2.97;;
54388;SDS011;40975;50.390;8.640;2023-08-21T10:20:22;3.25;;;2.95;;
54388;SDS011;40975;50.390;8.640;2023-08-21T10:22:50;6.65;;;3.10;;
54388;SDS011;40975;50.390;8.640;2023-08-21T10:25:17;3.97;;;2.78;;
54388;SDS011;40975;50.390;8.640;2023-08-21T10:27:49;6.05;;;2.97;;
54388;SDS011;40975;50.390;8.640;2023-08-21T10:30:19;4.93;;;3.03;;
54388;SDS011;40975;50.390;8.640;2023-08-21T10:32:46;5.32;;;3.55;;
54388;SDS011;40975;50.390;8.640;2023-08-21T10:35:17;6.45;;;3.70;;
54388;SDS011;40975;50.390;8.640;2023-08-21T10:40:35;3.95;;;3.55;;
54388;SDS011;40975;50.390;8.640;2023-08-21T10:43:01;4.05;;;3.38;;
54388;SDS011;40975;50.390;8.640;2023-08-21T10:45:30;3.88;;;3.55;;
54388;SDS011;40975;50.390;8.640;2023-08-21T10:47:59;4.63;;;3.22;;
54388;SDS011;40975;50.390;8.640;2023-08-21T10:50:25;4.13;;;3.70;;
54388;SDS011;40975;50.390;8.640;2023-08-21T10:52:51;5.43;;;3.10;;
54388;SDS011;40975;50.390;8.640;2023-08-21T10:55:18;5.35;;;3.08;;
54388;SDS011;40975;50.390;8.640;2023-08-21T10:57:45;3.50;;;2.45;;
54388;SDS011;40975;50.390;8.640;2023-08-21T11:00:12;6.10;;;3.05;;
54388;SDS011;40975;50.390;8.640;2023-08-21T11:02:46;2.70;;;2.50;;
54388;SDS011;40975;50.390;8.640;2023-08-21T11:05:13;2.95;;;2.65;;
54388;SDS011;40975;50.390;8.640;2023-08-21T11:07:43;2.97;;;2.40;;
54388;SDS011;40975;50.390;8.640;2023-08-21T11:10:11;3.30;;;2.28;;
54388;SDS011;40975;50.390;8.640;2023-08-21T11:12:48;4.07;;;2.10;;
54388;SDS011;40975;50.390;8.640;2023-08-21T11:15:18;2.08;;;1.98;;
54388;SDS011;40975;50.390;8.640;2023-08-21T11:18:05;2.45;;;2.17;;
54388;SDS011;40975;50.390;8.640;2023-08-21T11:22:56;4.15;;;1.90;;
54388;SDS011;40975;50.390;8.640;2023-08-21T11:25:22;2.08;;;1.88;;
54388;SDS011;40975;50.390;8.640;2023-08-21T11:27:48;2.83;;;1.88;;
54388;SDS011;40975;50.390;8.640;2023-08-21T11:30:13;2.00;;;1.80;;
54388;SDS011;40975;50.390;8.640;2023-08-21T11:32:38;5.22;;;1.88;;
54388;SDS011;40975;50.390;8.640;2023-08-21T11:35:04;2.03;;;1.80;;
54388;SDS011;40975;50.390;8.640;2023-08-21T11:37:29;2.15;;;1.67;;
54388;SDS011;40975;50.390;8.640;2023-08-21T11:39:55;3.08;;;2.03;;
54388;SDS011;40975;50.390;8.640;2023-08-21T11:42:28;2.10;;;1.77;;
54388;SDS011;40975;50.390;8.640;2023-08-21T11:44:54;2.10;;;1.40;;
54388;SDS011;40975;50.390;8.640;2023-08-21T11:47:20;1.50;;;1.40;;
54388;SDS011;40975;50.390;8.640;2023-08-21T11:49:47;1.60;;;1.50;;
54388;SDS011;40975;50.390;8.640;2023-08-21T11:52:14;2.45;;;1.60;;
54388;SDS011;40975;50.390;8.640;2023-08-21T11:54:43;2.60;;;1.50;;
54388;SDS011;40975;50.390;8.640;2023-08-21T11:57:13;3.25;;;1.73;;
54388;SDS011;40975;50.390;8.640;2023-08-21T11:59:39;3.83;;;1.70;;
54388;SDS011;40975;50.390;8.640;2023-08-21T12:02:09;3.20;;;1.63;;
54388;SDS011;40975;50.390;8.640;2023-08-21T12:04:35;1.60;;;1.45;;
54388;SDS011;40975;50.390;8.640;2023-08-21T12:07:00;1.20;;;1.10;;
54388;SDS011;40975;50.390;8.640;2023-08-21T12:09:26;3.88;;;1.60;;
54388;SDS011;40975;50.390;8.640;2023-08-21T12:11:52;1.60;;;1.50;;
54388;SDS011;40975;50.390;8.640;2023-08-21T12:14:17;3.00;;;1.58;;
54388;SDS011;40975;50.390;8.640;2023-08-21T12:16:42;2.03;;;1.30;;
54388;SDS011;40975;50.390;8.640;2023-08-21T12:19:08;2.42;;;2.00;;
54388;SDS011;40975;50.390;8.640;2023-08-21T12:21:34;2.72;;;1.90;;
54388;SDS011;40975;50.390;8.640;2023-08-21T12:24:02;2.88;;;2.20;;
54388;SDS011;40975;50.390;8.640;2023-08-21T12:26:29;5.85;;;2.90;;
54388;SDS011;40975;50.390;8.640;2023-08-21T12:28:54;6.60;;;2.13;;
54388;SDS011;40975;50.390;8.640;2023-08-21T12:31:20;3.72;;;1.98;;
54388;SDS011;40975;50.390;8.640;2023-08-21T12:33:45;1.15;;;1.05;;
54388;SDS011;40975;50.390;8.640;2023-08-21T12:36:10;1.50;;;1.40;;
54388;SDS011;40975;50.390;8.640;2023-08-21T12:38:36;1.40;;;1.30;;
54388;SDS011;40975;50.390;8.640;2023-08-21T12:41:01;1.73;;;1.10;;
54388;SDS011;40975;50.390;8.640;2023-08-21T12:43:27;1.98;;;1.05;;
54388;SDS011;40975;50.390;8.640;2023-08-21T12:45:52;1.75;;;1.30;;
54388;SDS011;40975;50.390;8.640;2023-08-21T12:48:18;1.65;;;1.20;;
54388;SDS011;40975;50.390;8.640;2023-08-21T12:50:43;1.88;;;1.33;;
54388;SDS011;40975;50.390;8.640;2023-08-21T12:53:08;1.45;;;1.20;;
54388;SDS011;40975;50.390;8.640;2023-08-21T12:55:34;2.05;;;1.42;;
54388;SDS011;40975;50.390;8.640;2023-08-21T12:57:59;1.77;;;1.45;;
54388;SDS011;40975;50.390;8.640;2023-08-21T13:00:24;1.45;;;1.35;;
54388;SDS011;40975;50.390;8.640;2023-08-21T13:02:50;3.30;;;1.70;;
54388;SDS011;40975;50.390;8.640;2023-08-21T13:05:15;2.70;;;1.50;;
54388;SDS011;40975;50.390;8.640;2023-08-21T13:07:41;2.45;;;1.70;;
54388;SDS011;40975;50.390;8.640;2023-08-21T13:10:07;2.08;;;1.70;;
54388;SDS011;40975;50.390;8.640;2023-08-21T13:12:32;2.40;;;1.35;;
54388;SDS011;40975;50.390;8.640;2023-08-21T13:14:58;3.03;;;1.52;;
54388;SDS011;40975;50.390;8.640;2023-08-21T13:17:23;3.95;;;1.60;;
54388;SDS011;40975;50.390;8.640;2023-08-21T13:19:49;1.67;;;1.30;;
54388;SDS011;40975;50.390;8.640;2023-08-21T13:22:18;2.95;;;1.55;;
54388;SDS011;40975;50.390;8.640;2023-08-21T13:24:43;3.13;;;1.30;;
54388;SDS011;40975;50.390;8.640;2023-08-21T13:27:09;2.38;;;1.58;;
54388;SDS011;40975;50.390;8.640;2023-08-21T13:29:34;2.80;;;1.23;;
54388;SDS011;40975;50.390;8.640;2023-08-21T13:32:00;6.53;;;1.80;;
54388;SDS011;40975;50.390;8.640;2023-08-21T13:34:25;2.05;;;1.52;;
54388;SDS011;40975;50.390;8.640;2023-08-21T13:36:53;3.42;;;2.15;;
54388;SDS011;40975;50.390;8.640;2023-08-21T13:39:18;4.53;;;2.42;;
54388;SDS011;40975;50.390;8.640;2023-08-21T13:41:43;3.88;;;2.10;;
54388;SDS011;40975;50.390;8.640;2023-08-21T13:44:09;4.72;;;2.38;;
54388;SDS011;40975;50.390;8.640;2023-08-21T13:46:34;2.85;;;2.03;;
54388;SDS011;40975;50.390;8.640;2023-08-21T13:49:00;3.22;;;2.33;;
54388;SDS011;40975;50.390;8.640;2023-08-21T13:51:25;2.75;;;2.42;;
54388;SDS011;40975;50.390;8.640;2023-08-21T13:53:51;3.33;;;2.38;;
54388;SDS011;40975;50.390;8.640;2023-08-21T13:56:16;2.28;;;2.05;;
54388;SDS011;40975;50.390;8.640;2023-08-21T13:58:41;3.28;;;2.45;;
54388;SDS011;40975;50.390;8.640;2023-08-21T14:01:07;2.55;;;2.30;;
54388;SDS011;40975;50.390;8.640;2023-08-21T14:03:33;3.83;;;2.25;;
54388;SDS011;40975;50.390;8.640;2023-08-21T14:05:59;3.28;;;2.13;;
54388;SDS011;40975;50.390;8.640;2023-08-21T14:08:24;2.75;;;2.00;;
54388;SDS011;40975;50.390;8.640;2023-08-21T14:10:49;3.28;;;1.73;;
54388;SDS011;40975;50.390;8.640;2023-08-21T14:13:15;2.65;;;2.40;;
54388;SDS011;40975;50.390;8.640;2023-08-21T14:15:40;2.70;;;2.00;;
54388;SDS011;40975;50.390;8.640;2023-08-21T14:18:05;4.45;;;2.30;;
54388;SDS011;40975;50.390;8.640;2023-08-21T14:20:31;2.63;;;2.00;;
54388;SDS011;40975;50.390;8.640;2023-08-21T14:22:56;4.18;;;2.38;;
54388;SDS011;40975;50.390;8.640;2023-08-21T14:25:22;3.70;;;2.30;;
54388;SDS011;40975;50.390;8.640;2023-08-21T14:27:47;2.92;;;1.98;;
54388;SDS011;40975;50.390;8.640;2023-08-21T14:30:13;2.97;;;1.80;;
54388;SDS011;40975;50.390;8.640;2023-08-21T14:32:39;2.83;;;1.92;;
54388;SDS011;40975;50.390;8.640;2023-08-21T14:35:05;3.67;;;1.70;;
54388;SDS011;40975;50.390;8.640;2023-08-21T14:37:33;2.63;;;1.65;;
54388;SDS011;40975;50.390;8.640;2023-08-21T14:39:58;4.15;;;2.15;;
54388;SDS011;40975;50.390;8.640;2023-08-21T14:42:23;2.47;;;1.67;;
54388;SDS011;40975;50.390;8.640;2023-08-21T14:44:49;3.55;;;1.80;;
54388;SDS011;40975;50.390;8.640;2023-08-21T14:47:14;2.63;;;1.90;;
54388;SDS011;40975;50.390;8.640;2023-08-21T14:49:40;2.33;;;1.90;;
54388;SDS011;40975;50.390;8.640;2023-08-21T14:52:06;2.35;;;1.75;;